Share

Alderney, United Kingdom

Guernsey, Channel Islands (IGUERNSE3) Elev 59 ft | 49.47 °N, 2.55 °W | Change Station

Current weather conditions updated 10 seconds ago

Clear
Clear
49.9 °F
Feels Like 50 °F
N
3.0
Wind Variable Wind from SE
Gusts 9.0 mph
Sunrise 6:04 AM
Sunset 8:11 PM
Moon Waning Gibbous

Today is forecast to be nearly the same temperature as yesterday.

Pressure 29.68 in
Visibility 6.2 miles
Clouds
Windchill 50 °F
Dew Point 48 °F
Humidity 93%
Rainfall 0.00 in
Snow Depth Not available.
UV Not available.
Pollen Not available.
Air Quality Not available.
Flu Activity Not available.
METAR LFRC 210700Z AUTO 16005KT 9999 NSC 07/06 Q1005

More Conditions Fewer Conditions

Pressure 29.68 in
Visibility 6.2 miles
Clouds
Windchill 50 °F
Dew Point 48 °F
Humidity 93%
Rainfall 0.00 in
Snow Depth Not available.
UV Not available.
Pollen Not available.
Air Quality Not available.
Flu Activity Not available.
METAR LFRC 210700Z AUTO 16005KT 9999 NSC 07/06 Q1005

More Conditions Fewer Conditions

10-Day Weather Forecast

Almanac

Astronomy

Apr. 21, 2014 Rise Set
Actual Time 6:04 AM BST 8:11 PM BST
Civil Twilight 5:30 AM BST 8:46 PM BST
Nautical Twilight 4:47 AM BST 9:29 PM BST
Astronomical Twilight 3:58 AM BST 10:18 PM BST
Moon 1:38 AM BST 11:06 AM BST
Length of Visible Light 15h 15m
Length of Day
14h 06m
Tomorrow will be 3m 30s longer.
Waning Gibbous, 62% of the Moon is Illuminated
Today
Waning Gibbous
Apr 22
Last Quarter
Apr 29
New
May 6
First Quarter
May 14
Full

Yesterday's Extremes

Country Highs Country Lows

Community

  • Snowy Robin
    Snowy Robin
  • Sun Pillar and Geese
    Sun Pillar and Geese
  • Showers on the Way
    Showers on the Way
  • Easter Morning Fog
    Easter Morning Fog
  • Easter Dance
    Easter Dance

WunderPhotos

Upload Photos

1,703,572 photos uploaded!

WunderBlogs® & News

Nearby

Snow Depth

Not available.

Coastal Water Temperatures

Place Temperature
No Stations Reporting

Earthquake Activity

City Distance Mag. Time & Date
No recent earthquake activity has been reported nearby.
Minimum magnitude displayed is 2.5.

Nearby Weather Stations

Station Location Temp. Windchill Dew Point Humidity Wind Precip. Elev Updated Type
Guernsey, Channel Islands, La Ramee, St Peter Port 49.9 °F 50 °F 48 °F 93% SE  at  3.0 mph 0.00 in / hr 59 ft 8:21 AM BST Rapid Fire
Guernsey U.K., Guernsey 50.1 °F - 50 °F 100% South  at  9.3 mph 0.00 in / hr 60 ft 8:21 AM BST Rapid Fire
Queens Road, St. Peter Port 49.8 °F 46 °F 49 °F 96% SSE  at  8.1 mph 0.05 in / hr 246 ft 8:21 AM BST Rapid Fire
Bailiffs Cross St Andrews Guernsey Chann, Bailiffs Cross 49.1 °F 46 °F 49 °F 100% SE  at  7.6 mph 0.00 in / hr 259 ft 8:21 AM BST Rapid Fire

Show More Stations Show Fewer Stations

What do you think?

We're not finished. Please let us know what you like, what you don't like, and what you are still missing.